| time (UTC) | temp C | wind direction | speed KPH | gust KPH | rain 1hr cm | rain 24hr cm | rain mn cm | humidity % | barometer mb |
| 20260506134705 | 9 | 302 | 1.6 | 11.3 | 0.05 | 2.39 | 2.39 | 95 | 1007.6 |
| 20260506133205 | 9 | 260 | 0.0 | 4.8 | 0.05 | 2.36 | 2.36 | 95 | 1007.6 |
| 20260506131704 | 9 | 302 | 0.0 | 4.8 | 0.03 | 2.34 | 2.34 | 95 | 1007.5 |
| 20260506130204 | 9 | 296 | 1.6 | 6.4 | 0.05 | 2.34 | 2.34 | 95 | 1007.5 |
| 20260506124705 | 9 | 11 | 0.0 | 4.8 | 0.05 | 2.34 | 2.34 | 95 | 1007.4 |
| 20260506123205 | 9 | 319 | 1.6 | 6.4 | 0.05 | 2.31 | 2.31 | 95 | 1007.4 |
| 20260506121704 | 8 | 297 | 1.6 | 6.4 | 0.08 | 2.31 | 2.31 | 95 | 1007.3 |
| 20260506120205 | 8 | 242 | 1.6 | 6.4 | 0.08 | 2.29 | 2.29 | 95 | 1007.1 |
| 20260506114704 | 8 | 346 | 1.6 | 6.4 | 0.10 | 2.29 | 2.29 | 95 | 1007.0 |
| 20260506113205 | 8 | 281 | 1.6 | 4.8 | 0.08 | 2.26 | 2.26 | 95 | 1007.1 |
| 20260506111704 | 8 | 319 | 1.6 | 6.4 | 0.05 | 2.24 | 2.24 | 95 | 1007.1 |
| 20260506110205 | 8 | 315 | 1.6 | 4.8 | 0.03 | 2.21 | 2.21 | 95 | 1006.9 |
| 20260506104705 | 8 | 304 | 1.6 | 9.7 | 0.00 | 2.18 | 2.18 | 95 | 1006.9 |
| 20260506103205 | 8 | 121 | 1.6 | 6.4 | 0.00 | 2.18 | 2.18 | 95 | 1006.8 |
| 20260506101705 | 8 | 319 | 1.6 | 8.0 | 0.00 | 2.18 | 2.18 | 95 | 1006.7 |
| 20260506100205 | 8 | 300 | 1.6 | 9.7 | 0.00 | 2.18 | 2.18 | 95 | 1006.6 |
| 20260506094705 | 8 | 240 | 1.6 | 6.4 | 0.00 | 2.18 | 2.18 | 96 | 1006.5 |
| 20260506093205 | 8 | 302 | 0.0 | 6.4 | 0.00 | 2.18 | 2.18 | 96 | 1006.4 |
| 20260506091705 | 8 | 266 | 1.6 | 9.7 | 0.00 | 2.18 | 2.18 | 96 | 1006.4 |
| 20260506090205 | 8 | 287 | 1.6 | 8.0 | 0.00 | 2.18 | 2.18 | 96 | 1006.3 |
| 20260506084705 | 8 | 308 | 1.6 | 8.0 | 0.03 | 2.18 | 2.18 | 96 | 1006.2 |
| 20260506083205 | 8 | 319 | 1.6 | 8.0 | 0.05 | 2.18 | 2.18 | 96 | 1006.0 |
| 20260506081705 | 8 | 298 | 1.6 | 4.8 | 0.10 | 2.18 | 2.18 | 96 | 1006.0 |
| 20260506080206 | 8 | 305 | 1.6 | 6.4 | 0.15 | 2.18 | 2.18 | 96 | 1005.8 |
| 20260506073205 | 8 | 311 | 1.6 | 8.0 | 0.23 | 2.13 | 2.13 | 96 | 1005.7 |
| 20260506071704 | 8 | 311 | 1.6 | 8.0 | 0.25 | 2.11 | 2.08 | 96 | 1005.7 |
| 20260506070205 | 8 | 304 | 1.6 | 8.0 | 0.23 | 2.08 | 2.03 | 96 | 1005.6 |
| 20260506061705 | 8 | 319 | 0.0 | 4.8 | 0.15 | 2.01 | 1.83 | 97 | 1005.3 |
| 20260506060205 | 8 | 300 | 0.0 | 6.4 | 0.18 | 1.96 | 1.78 | 97 | 1005.2 |
| 20260506050205 | 9 | 315 | 0.0 | 4.8 | 0.23 | 1.80 | 1.60 | 96 | 1005.2 |
| 20260506044705 | 9 | 290 | 0.0 | 4.8 | 0.20 | 1.73 | 1.52 | 96 | 1005.1 |
| 20260506043205 | 9 | 315 | 0.0 | 8.0 | 0.23 | 1.68 | 1.47 | 97 | 1005.1 |
| 20260506041705 | 9 | 301 | 1.6 | 8.0 | 0.18 | 1.63 | 1.42 | 96 | 1005.1 |
| 20260506040206 | 9 | 319 | 1.6 | 6.4 | 0.18 | 1.57 | 1.35 | 96 | 1005.1 |
| 20260506034705 | 9 | 232 | 0.0 | 4.8 | 0.20 | 1.52 | 1.30 | 96 | 1005.1 |
| 20260506033205 | 9 | 88 | 0.0 | 4.8 | 0.20 | 1.47 | 1.27 | 97 | 1005.2 |
| 20260506031705 | 9 | 282 | 1.6 | 6.4 | 0.20 | 1.45 | 1.22 | 97 | 1005.3 |
| 20260506030205 | 10 | 279 | 0.0 | 3.2 | 0.18 | 1.37 | 1.17 | 97 | 1005.4 |
| 20260506024704 | 9 | 301 | 1.6 | 6.4 | 0.18 | 1.32 | 1.12 | 96 | 1005.6 |
| 20260506023205 | 10 | 180 | 0.0 | 6.4 | 0.18 | 1.27 | 1.07 | 96 | 1005.6 |
| 20260506021714 | 10 | 306 | 1.6 | 6.4 | 0.18 | 1.22 | 1.02 | 96 | 1005.7 |
| 20260506020205 | 10 | 279 | 0.0 | 4.8 | 0.23 | 1.19 | 0.99 | 96 | 1005.8 |
| 20260506014704 | 10 | 321 | 0.0 | 4.8 | 0.28 | 1.14 | 0.94 | 96 | 1005.9 |
| 20260506013205 | 10 | 319 | 0.0 | 4.8 | 0.33 | 1.09 | 0.89 | 96 | 1006.0 |
| 20260506011705 | 10 | 315 | 0.0 | 6.4 | 0.33 | 1.02 | 0.81 | 96 | 1006.1 |
| 20260506010205 | 10 | 315 | 0.0 | 4.8 | 0.30 | 0.97 | 0.74 | 96 | 1006.0 |
| 20260506004705 | 10 | 315 | 0.0 | 4.8 | 0.30 | 0.89 | 0.66 | 96 | 1006.1 |
| 20260506003205 | 10 | 5 | 1.6 | 11.3 | 0.25 | 0.79 | 0.56 | 96 | 1006.1 |
| 20260506001705 | 10 | 318 | 1.6 | 4.8 | 0.30 | 0.71 | 0.48 | 96 | 1006.3 |
| 20260506000205 | 10 | 325 | 0.0 | 6.4 | 0.28 | 0.64 | 0.41 | 96 | 1006.3 |
| 20260505234705 | 10 | 294 | 1.6 | 6.4 | 0.28 | 0.58 | 0.36 | 96 | 1006.6 |
| 20260505233205 | 10 | 312 | 0.0 | 4.8 | 0.23 | 0.51 | 0.28 | 96 | 1006.6 |
| 20260505231704 | 11 | 299 | 1.6 | 8.0 | 0.15 | 0.38 | 0.15 | 96 | 1006.7 |
| 20260505230205 | 11 | 331 | 1.6 | 9.7 | 0.13 | 0.38 | 0.13 | 96 | 1006.8 |
| 20260505224705 | 11 | 318 | 1.6 | 8.0 | 0.08 | 0.33 | 0.08 | 96 | 1006.8 |
| 20260505223205 | 11 | 315 | 0.0 | 8.0 | 0.05 | 0.30 | 0.05 | 96 | 1006.9 |
| 20260505221705 | 11 | 301 | 0.0 | 8.0 | 0.00 | 0.25 | 0.00 | 96 | 1007.0 |
| 20260505220205 | 11 | 309 | 1.6 | 3.2 | 0.00 | 0.28 | 0.28 | 95 | 1007.1 |
| 20260505214705 | 11 | 293 | 0.0 | 6.4 | 0.00 | 0.28 | 0.28 | 95 | 1007.3 |
| 20260505213205 | 11 | 338 | 0.0 | 4.8 | 0.00 | 0.28 | 0.28 | 95 | 1007.4 |
| 20260505211705 | 11 | 317 | 0.0 | 3.2 | 0.00 | 0.30 | 0.28 | 95 | 1007.5 |
| 20260505210208 | 11 | 312 | 0.0 | 8.0 | 0.00 | 0.30 | 0.28 | 95 | 1007.6 |
| 20260505204705 | 11 | 312 | 0.0 | 6.4 | 0.00 | 0.30 | 0.28 | 95 | 1007.7 |
| 20260505203205 | 11 | 327 | 1.6 | 4.8 | 0.00 | 0.30 | 0.28 | 95 | 1007.7 |
| 20260505201705 | 11 | 193 | 0.0 | 3.2 | 0.00 | 0.30 | 0.28 | 94 | 1007.8 |
| 20260505200205 | 11 | 315 | 0.0 | 4.8 | 0.00 | 0.30 | 0.28 | 94 | 1007.8 |
| 20260505194705 | 11 | 333 | 0.0 | 6.4 | 0.00 | 0.30 | 0.28 | 94 | 1007.7 |
| 20260505193205 | 11 | 303 | 1.6 | 8.0 | 0.00 | 0.30 | 0.28 | 93 | 1007.8 |
| 20260505191705 | 11 | 11 | 1.6 | 8.0 | 0.00 | 0.30 | 0.28 | 93 | 1007.7 |
| 20260505190205 | 11 | 297 | 0.0 | 4.8 | 0.00 | 0.30 | 0.28 | 93 | 1007.6 |
| 20260505184704 | 11 | 307 | 0.0 | 4.8 | 0.00 | 0.30 | 0.28 | 93 | 1007.6 |
| 20260505183204 | 11 | 132 | 0.0 | 4.8 | 0.00 | 0.30 | 0.28 | 93 | 1007.5 |
| 20260505181705 | 11 | 315 | 1.6 | 4.8 | 0.00 | 0.30 | 0.28 | 93 | 1007.6 |
| 20260505180205 | 11 | 327 | 0.0 | 8.0 | 0.00 | 0.30 | 0.28 | 92 | 1007.7 |
| 20260505174705 | 11 | 298 | 1.6 | 8.0 | 0.00 | 0.30 | 0.28 | 92 | 1007.7 |
| 20260505173205 | 11 | 300 | 0.0 | 6.4 | 0.00 | 0.30 | 0.28 | 92 | 1007.8 |
| 20260505171705 | 11 | 0 | 1.6 | 6.4 | 0.00 | 0.30 | 0.28 | 91 | 1007.8 |
| 20260505170206 | 11 | 348 | 1.6 | 6.4 | 0.00 | 0.30 | 0.28 | 91 | 1007.8 |
| 20260505164705 | 11 | 284 | 0.0 | 6.4 | 0.00 | 0.30 | 0.28 | 91 | 1007.9 |
| 20260505163205 | 11 | 306 | 0.0 | 6.4 | 0.00 | 0.30 | 0.28 | 91 | 1008.0 |
| 20260505161705 | 11 | 319 | 0.0 | 6.4 | 0.00 | 0.30 | 0.28 | 91 | 1008.0 |
| 20260505160205 | 11 | 131 | 0.0 | 4.8 | 0.00 | 0.30 | 0.28 | 91 | 1007.9 |
| 20260505153205 | 11 | 314 | 1.6 | 6.4 | 0.00 | 0.30 | 0.28 | 90 | 1008.3 |
| 20260505151705 | 11 | 262 | 1.6 | 8.0 | 0.00 | 0.30 | 0.28 | 90 | 1008.3 |
| 20260505150205 | 11 | 286 | 1.6 | 6.4 | 0.00 | 0.30 | 0.28 | 89 | 1008.5 |
| 20260505140205 | 12 | 309 | 0.0 | 4.8 | 0.00 | 0.30 | 0.28 | 89 | 1008.7 |